Flight Track Log - Related Links

Times and Time Zones

All times are in EDT time to prevent confusion due to time zone crossing. See the N789EX flight status page for this flight to view local times or setup timezone preferences in your user account.

Time Position Orientation Groundspeed Altitude Reporting Facility
EDT Latitude Longitude Course Direction KTS MPH feet Rate Location/Type
Fri 12:50:40 PM 47.5112 -122.2860 147° Southeast 166 191 1,400  Level FlightAware ADS-B
Fri 12:50:51 PM 47.5037 -122.2780 144° Southeast 182 209 1,800 1,556 Climbing FlightAware ADS-B
Fri 12:51:07 PM 47.4918 -122.2650 143° Southeast 219 252 2,100 1,935 Climbing FlightAware ADS-B
Fri 12:51:22 PM 47.4788 -122.2500 141° Southeast 237 273 2,800 2,700 Climbing FlightAware ADS-B
Fri 12:51:27 PM 47.4750 -122.2450 135° Southeast 246 283 3,000 2,000 Climbing FlightAware ADS-B
Fri 12:51:31 PM 47.4723 -122.2400 127° Southeast 254 292 3,100 2,571 Climbing FlightAware ADS-B
Fri 12:51:34 PM 47.4704 -122.2350 119° Southeast 258 297 3,300 3,429 Climbing FlightAware ADS-B
Fri 12:51:38 PM 47.4685 -122.2290 111° Southeast 264 304 3,500 3,429 Climbing FlightAware ADS-B
Fri 12:51:41 PM 47.4674 -122.2220 103° East 268 308 3,700 3,750 Climbing FlightAware ADS-B
Fri 12:51:46 PM 47.4664 -122.2130 97° East 272 313 4,000 3,714 Climbing FlightAware ADS-B
Fri 12:52:02 PM 47.4643 -122.1840 96° East 276 318 5,000 3,913 Climbing FlightAware ADS-B
Fri 12:52:09 PM 47.4635 -122.1735 96° East 278 320 5,500 4,000 Climbing FlightAware ADS-B
Fri 12:52:14 PM 47.4627 -122.1620 96° East 279 321 5,800 3,600 Climbing FlightAware ADS-B
Fri 12:52:29 PM 47.4608 -122.1330 95° East 283 326 6,700 3,750 Climbing FlightAware ADS-B
Fri 12:52:30 PM 47.4609 -122.1349 95° East 284 327 6,800 4,000 Climbing FlightAware ADS-B
Fri 12:52:44 PM 47.4588 -122.1030 96° East 288 331 7,700 3,600 Climbing FlightAware ADS-B
Fri 12:52:50 PM 47.4582 -122.0933 96° East 290 334 8,000 3,375 Climbing FlightAware ADS-B
Fri 12:53:00 PM 47.4568 -122.0730 96° East 290 334 8,600 3,789 Climbing FlightAware ADS-B
Fri 12:53:09 PM 47.4554 -122.0539 96° East 293 337 9,200 3,692 Climbing FlightAware ADS-B
Fri 12:53:13 PM 47.4549 -122.0470 96° East 293 337 9,400 3,529 Climbing FlightAware ADS-B
Fri 12:53:43 PM 47.4502 -121.9860 96° East 302 348 11,200 3,500 Climbing FlightAware ADS-B
Fri 12:53:49 PM 47.4495 -121.9761 96° East 303 349 11,500 3,000 Climbing FlightAware ADS-B
Fri 12:54:11 PM 47.4460 -121.9290 96° East 309 356 12,600 2,341 Climbing FlightAware ADS-B
Fri 12:54:30 PM 47.4434 -121.8948 97° East 335 386 13,100 1,355 Climbing FlightAware ADS-B
Fri 12:54:42 PM 47.4403 -121.8590 97° East 353 406 13,300 1,355 Climbing FlightAware ADS-B
Fri 12:55:01 PM 47.4364 -121.8130 97° East 376 433 13,800 1,800 Climbing FlightAware ADS-B (CYVR)
Fri 12:55:12 PM 47.4340 -121.7820 97° East 386 444 14,200 2,571 Climbing FlightAware ADS-B
Fri 12:55:43 PM 47.4294 -121.7020 93° East 400 460 15,600 2,684 Climbing FlightAware ADS-B
Fri 12:55:50 PM 47.4289 -121.6832 92° East 401 461 15,900 3,273 Climbing FlightAware ADS-B
Fri 12:55:54 PM 47.4286 -121.6700 91° East 403 464 16,200 2,743 Climbing FlightAware ADS-B
Fri 12:56:25 PM 47.4278 -121.5860 91° East 415 478 17,500 2,727 Climbing FlightAware ADS-B
Fri 12:56:27 PM 47.4277 -121.5801 91° East 416 479 17,700 2,647 Climbing FlightAware ADS-B
Fri 12:56:59 PM 47.4265 -121.4930 91° East 423 487 19,000 2,743 Climbing FlightAware ADS-B
Fri 12:57:02 PM 47.4262 -121.4743 91° East 425 489 19,300 2,229 Climbing FlightAware ADS-B
Fri 12:57:34 PM 47.4252 -121.4080 91° East 430 495 20,300 2,488 Climbing FlightAware ADS-B
Fri 12:57:43 PM 47.4245 -121.3618 91° East 436 502 21,000 2,800 Climbing FlightAware ADS-B (CYVR)
Fri 12:58:04 PM 47.4235 -121.3000 91° East 442 509 21,700 2,200 Climbing FlightAware ADS-B
Fri 12:58:13 PM 47.4230 -121.2681 91° East 446 513 22,100 2,400 Climbing FlightAware ADS-B (CYVR)
Fri 12:58:29 PM 47.4223 -121.2212 91° East 450 518 22,700 2,182 Climbing FlightAware ADS-B
Fri 12:58:35 PM 47.4220 -121.2080 91° East 451 519 22,900 2,276 Climbing FlightAware ADS-B
Fri 12:58:58 PM 47.4206 -121.1297 92° East 457 526 23,800 2,400 Climbing FlightAware ADS-B (CYVR)
Fri 12:59:05 PM 47.4202 -121.1080 91° East 459 528 24,100 2,000 Climbing FlightAware ADS-B
Fri 12:59:31 PM 47.4186 -121.0254 92° East 465 535 24,900 1,800 Climbing FlightAware ADS-B
Fri 12:59:35 PM 47.4185 -121.0200 92° East 466 536 25,000 2,057 Climbing FlightAware ADS-B
Fri 01:00:06 PM 47.4165 -120.9130 92° East 474 545 26,100 1,967 Climbing FlightAware ADS-B
Fri 01:00:36 PM 47.4147 -120.8160 92° East 482 555 27,000 1,875 Climbing FlightAware ADS-B
Fri 01:00:38 PM 47.4146 -120.8085 91° East 481 554 27,100 2,000 Climbing FlightAware ADS-B (KPFC)
Fri 01:01:06 PM 47.4127 -120.7160 92° East 487 560 28,000 1,759 Climbing FlightAware ADS-B
Fri 01:01:36 PM 47.4105 -120.6160 92° East 493 567 28,800 984 Climbing FlightAware ADS-B
Fri 01:02:07 PM 47.4081 -120.5100 92° East 514 592 29,000 194 Climbing FlightAware ADS-B
Fri 01:02:38 PM 47.4055 -120.4010 92° East 537 618 29,000  Level FlightAware ADS-B
Fri 01:03:08 PM 47.4027 -120.2880 92° East 556 640 29,000  Level FlightAware ADS-B
Fri 01:03:38 PM 47.3996 -120.1730 93° East 557 641 29,000 -197 Level FlightAware ADS-B
Fri 01:04:09 PM 47.3956 -120.0560 93° East 561 646 28,800  Descending FlightAware ADS-B
Fri 01:04:39 PM 47.3908 -119.9400 94° East 560 644 29,000 -295 Climbing FlightAware ADS-B
Fri 01:05:10 PM 47.3852 -119.8250 95° East 567 652 28,500 -720 Descending FlightAware ADS-B
Fri 01:05:29 PM 47.3818 -119.7490 91° East 568 654 28,400 -364 Descending FlightAware ADS-B
Fri 01:05:43 PM 47.4129 -120.7240 77° East 568 654 28,300 -222 Descending FlightAware ADS-B
Fri 01:05:56 PM 47.3949 -119.6490 76° East 566 651 28,300  Level FlightAware ADS-B
Fri 01:06:00 PM 47.3968 -119.6340 80° East 566 651 28,300  Level FlightAware ADS-B
Fri 01:06:13 PM 47.3979 -119.5810 93° East 567 652 28,300 150 Level FlightAware ADS-B
Fri 01:06:40 PM 47.3802 -119.4840 112° Southeast 564 649 28,400 -35 Climbing FlightAware ADS-B
Fri 01:09:03 PM 47.2209 -118.9930 116° Southeast 560 644 28,200 -81 Descending FlightAware ADS-B
Fri 01:09:08 PM 47.2138 -118.9780 127° Southeast 556 640 28,200 -295 Level FlightAware ADS-B
Fri 01:10:04 PM 47.1550 -118.7933 127° Southeast 567 652 27,900 -254 Descending Salt Lake Center
Fri 01:11:06 PM 47.0672 -118.6083 125° Southeast 563 648 27,700 48 Descending Salt Lake Center
Fri 01:12:08 PM 46.9731 -118.4303 128° Southeast 557 641 28,000 98 Climbing Salt Lake Center
Fri 01:13:09 PM 46.8978 -118.2528 122° Southeast 527 606 27,900  Descending Salt Lake Center
Fri 01:14:11 PM 46.8339 -118.0986 121° Southeast 467 537 28,000 46 Climbing Salt Lake Center
Fri 01:15:19 PM 46.7633 -117.9308 122° Southeast 442 509 28,000  Level Seattle Center
Fri 01:16:20 PM 46.6983 -117.7814 122° Southeast 441 507 28,000  Level Seattle Center
Fri 01:17:21 PM 46.6333 -117.6278 122° Southeast 442 509 28,000 492 Level Seattle Center
Fri 01:18:22 PM 46.5683 -117.4731 121° Southeast 444 511 29,000 492 Climbing Seattle Center
Fri 01:19:23 PM 46.5011 -117.3189 122° Southeast 448 516 29,000  Level Seattle Center
Fri 01:20:24 PM 46.4183 -117.1222 121° Southeast 478 550 29,000  Level Seattle Center
Fri 01:21:24 PM 46.3372 -116.9381 122° Southeast 538 619 29,000 -50 Level Seattle Center
Fri 01:22:25 PM 46.2511 -116.7522 124° Southeast 555 639 28,900 -984 Descending Seattle Center
Fri 01:23:26 PM 46.1669 -116.5669 123° Southeast 555 639 27,000 541 Descending Seattle Center
Fri 01:24:27 PM 46.0969 -116.4075 122° Southeast 484 557 30,000 1,475 Climbing Seattle Center
Fri 01:25:28 PM 46.0336 -116.2578 121° Southeast 445 512 30,000  Level Seattle Center
Fri 01:26:31 PM 45.9736 -116.1075 120° Southeast 435 501 30,000  Level Salt Lake Center
Fri 01:27:32 PM 45.9225 -115.9533 115° Southeast 430 495 30,000  Level Salt Lake Center
Fri 01:28:31 PM 45.8411 -115.8267 133° Southeast 440 506 30,000  Level Seattle Center
Fri 01:29:20 PM 45.7764 -115.7178 130° Southeast 447 514 30,000  Level Seattle Center
Fri 01:30:21 PM 45.7067 -115.5825 126° Southeast 467 537 30,000  Level Seattle Center
Fri 01:31:21 PM 45.6664 -115.6794 239° Southwest 376 433 30,000  Level Seattle Center
Fri 01:32:22 PM 45.7325 -115.7808 313° West 354 407 30,000  Level Seattle Center
Fri 01:33:23 PM 45.8133 -115.9033 313° West 352 405 30,000  Level Seattle Center
Fri 01:34:24 PM 45.8822 -116.0094 313° West 362 417 30,000  Level Seattle Center
Fri 01:35:25 PM 45.9339 -116.1353 301° West 364 419 30,000  Level Seattle Center
Fri 01:36:26 PM 45.9808 -116.2692 297° West 371 427 30,000  Level Seattle Center
Fri 01:37:27 PM 46.0275 -116.3975 298° West 370 426 30,000  Level Seattle Center
Fri 01:38:28 PM 46.0786 -116.5247 300° West 369 425 30,000 1,475 Level Seattle Center
Fri 01:39:29 PM 46.1306 -116.6456 302° West 362 417 33,000 1,475 Climbing Seattle Center
Fri 01:40:30 PM 46.1828 -116.7692 301° West 362 417 33,000  Level Seattle Center
Fri 01:41:31 PM 46.2419 -116.8969 304° West 377 434 33,000  Level Seattle Center
Fri 01:42:32 PM 46.3025 -117.0339 303° West 400 460 33,000  Level Seattle Center
Fri 01:43:33 PM 46.3667 -117.1733 304° West 416 479 33,000  Level Seattle Center
Fri 01:44:34 PM 46.4339 -117.3414 298° West 407 468 33,000  Level Seattle Center
Fri 01:45:00 PM 46.5265 -117.7313 298° West  Level FlightAware Approximate
Fri 01:45:35 PM 46.4750 -117.4556 298° West 396 456 33,000  Level Seattle Center
Fri 01:46:36 PM 46.5367 -117.6256 298° West 396 456 33,000  Level Seattle Center
Fri 01:47:37 PM 46.5906 -117.7603 300° West 394 453 33,000 286 Level Seattle Center
Fri 01:55:20 PM 46.9911 -118.8630 1000° North 392 451 35,500 321 Climbing FlightAware ADS-B
Fri 01:55:25 PM 46.9947 -118.8750 294° West 397 457 35,500 -167 Level FlightAware ADS-B
Fri 01:55:56 PM 47.0176 -118.9540 292° West 400 460 35,400 -188 Descending FlightAware ADS-B
Fri 01:56:29 PM 47.0397 -119.0370 290° West 403 464 35,300 -190 Descending FlightAware ADS-B
Fri 01:56:59 PM 47.0571 -119.1140 287° West 403 464 35,200 87 Descending FlightAware ADS-B
Fri 01:57:38 PM 47.0770 -119.2180 286° West 411 473 35,400 600 Climbing FlightAware ADS-B
Fri 01:58:09 PM 47.0926 -119.3030 285° West 421 484 35,900 98 Climbing FlightAware ADS-B
Fri 01:58:39 PM 47.1070 -119.3880 283° West 433 498 35,500 -778 Descending FlightAware ADS-B
Fri 01:59:03 PM 47.1178 -119.4540 285° West 437 503 35,200 -828 Descending FlightAware ADS-B
Fri 01:59:08 PM 47.1218 -119.4710 291° West 439 505 35,100  Descending FlightAware ADS-B
Fri 01:59:18 PM 47.1317 -119.4970 303° West 439 505 35,200 947 Climbing FlightAware ADS-B
Fri 01:59:27 PM 47.1429 -119.5150 313° West 441 507 35,400 1,200 Climbing FlightAware ADS-B
Fri 01:59:33 PM 47.1533 -119.5280 322° Northwest 445 512 35,500 857 Climbing FlightAware ADS-B
Fri 01:59:41 PM 47.1668 -119.5400 331° Northwest 453 521 35,600 286 Climbing FlightAware ADS-B
Fri 01:59:54 PM 47.1928 -119.5540 345° North 467 537 35,600  Level FlightAware ADS-B
Fri 02:00:04 PM 47.2144 -119.5590 354° North 478 550 35,600  Level FlightAware ADS-B
Fri 02:00:10 PM 47.2274 -119.5590 North 484 557 35,600 -273 Level FlightAware ADS-B
Fri 02:00:26 PM 47.2647 -119.5500 14° North 500 575 35,500 -462 Descending FlightAware ADS-B
Fri 02:00:36 PM 47.2853 -119.5380 27° Northeast 508 585 35,400 -222 Descending FlightAware ADS-B
Fri 02:00:53 PM 47.3169 -119.5000 47° Northeast 511 588 35,400 308 Level FlightAware ADS-B
Fri 02:01:54 PM 47.3328 -119.3069 114° Southeast 522 601 35,800 -57 Climbing FlightAware ADS-B
Fri 02:04:22 PM 47.1390 -118.8630 125° Southeast 513 590 35,200 -312 Descending FlightAware ADS-B
Fri 02:04:28 PM 47.1320 -118.8440 116° Southeast 517 595 35,000 -1,610 Descending FlightAware ADS-B
Fri 02:05:44 PM 47.0375 -118.6519 116° Southeast 512 589 33,000 -870 Descending Salt Lake Center
Fri 02:06:46 PM 46.9425 -118.5081 134° Southeast 498 573 33,000  Level Salt Lake Center
Fri 02:07:48 PM 46.8619 -118.3414 125° Southeast 501 577 33,000  Level Salt Lake Center
Fri 02:08:59 PM 46.7761 -118.1481 123° Southeast 503 579 33,000  Level Seattle Center
Fri 02:10:00 PM 46.6969 -117.9333 118° Southeast 504 580 33,000 -1,475 Level Seattle Center
Fri 02:11:01 PM 46.6372 -117.7614 117° Southeast 485 558 30,000 -1,463 Descending Seattle Center
Fri 02:12:03 PM 46.5758 -117.5936 118° Southeast 478 550 30,000  Level Seattle Center
Fri 02:13:04 PM 46.5083 -117.4289 121° Southeast 477 549 30,000 -443 Level Seattle Center
Fri 02:14:05 PM 46.4433 -117.2664 120° Southeast 476 548 29,100 -492 Descending Seattle Center
Fri 02:15:06 PM 46.3708 -117.0903 121° Southeast 496 571 29,000 -98 Descending Seattle Center
Fri 02:16:07 PM 46.2939 -116.8942 120° Southeast 549 632 28,900  Descending Seattle Center
Fri 02:17:08 PM 46.2175 -116.6964 119° Southeast 561 646 29,000 -927 Climbing Seattle Center
Fri 02:18:10 PM 46.1431 -116.4969 118° Southeast 565 650 27,000 -976 Descending Seattle Center
Fri 02:19:11 PM 46.0619 -116.2533 116° Southeast 564 649 27,000  Level Seattle Center
Fri 02:20:12 PM 46.0017 -116.0433 112° Southeast 564 649 27,000  Level Salt Lake Center
Fri 02:22:14 PM 45.8078 -116.0661 185° South 536 617 27,000  Level Seattle Center
Fri 02:23:15 PM 45.8781 -116.2300 302° West 511 588 27,000  Level Seattle Center
Fri 02:25:22 PM 46.0256 -116.5061 308° West 446 513 27,000 -978 Level Salt Lake Center
Fri 02:26:19 PM 46.0881 -116.6267 307° West 401 461 24,000 -1,525 Descending Seattle Center
Fri 02:27:20 PM 46.1383 -116.7572 299° West 384 442 24,000 -4,918 Level Seattle Center
Fri 02:28:21 PM 46.1886 -116.8858 299° West 376 433 14,000 -4,878 Descending Seattle Center
Fri 02:29:23 PM 46.2581 -117.0242 306° West 368 423 14,000  Level Seattle Center
Fri 02:30:24 PM 46.3058 -117.1372 301° West 350 403 14,000  Level Seattle Center
Fri 02:31:25 PM 46.3494 -117.2536 299° West 339 390 14,000  Level Seattle Center
Fri 02:32:26 PM 46.3803 -117.3814 289° West 330 380 14,000  Level Seattle Center
Fri 02:33:27 PM 46.4275 -117.4922 302° West 324 373 14,000  Level Seattle Center
Fri 02:34:28 PM 46.4683 -117.6042 298° West 324 373 14,000  Level Seattle Center
Fri 02:35:30 PM 46.5164 -117.7058 305° West 317 365 14,000  Level Seattle Center
Fri 02:37:00 PM 46.8401 -118.5457 299° West  Level FlightAware Approximate

Login

Don't have an account? Register now (free) for customized features, flight alerts, and more!